Hauptseite
METAR-TAF:

METAR-TAF

Flughäfen :

Sitiawan, Malaysia

Breite: 04-13N, Länge: 100-42E, Höhe: 7 m

Beobachtung

Neuester Wetterbericht von vor 39 Minuten, um 18:00 UTC
Wind 1 kt aus unterschiedlichen Richtungen
Temperatur 28°C
Luftfeuchtigkeit 89%
Luftdruck 1009 hPa
Sichtweite: 8000 m
Leicht bewölkt in der Höhe von 3100 ft

METAR: WMBA 181800Z VRB01KT 8000 FEW031 28/26 Q1009

Zeit: 02:39 (18:39 UTC)


TAF: fehlend

Wetterbeobachtungen und Prognosen von mehr als 4000 Flughäfen (METAR und TAF Bericht).

Die verfügbaren Stationen werden durch gelbe und rote Markierungen auf der Karte dargestellt.

Führen Sie die Maus auf sie, um den Namen der Station zu sehen.

Darauf klicken, um die Beobachtung von Wetterbeobachtungen und Prognosen zu sehen.

Um die Karte zu ändern : klicken Sie auf den grünen Tasten mit einem schwarzen Kreuz Zum Vergrößern, auf den grünen Button mit einem Gedankenstrich zu verkleinern, oder auf die grünen Pfeile für benachbarte Karten.


METAR-TAF: